Russell, Iowa
Current Conditions -  °F | °C
As of 11:55 AM on Saturday 22 Nov 2014 (Local Time) from KCNC Reporting Station
Haze Haze  
Wind Chill: 44°   Ceiling: 400
Heat Index: 48°   Visibility: 2mi
Dew Point: 48°   Wind: 10mph
Humidity: 100%   Direction: 210°SSW
Pressure: 29.84"   Gusts: NA
Location:  40.98°N, 93.2°W
Report Text: KCNC 221755Z AUTO 21009KT 2SM BR OVC004 09/09 A2984 RMK AO2
Loading
Personal Weather Stations






























Interactive Weather Map New forecast layout! Learn more

10-Day Weather Forecast

Advertisements
Track Severe Weather on mobile